sensor_id;sensor_type;location;lat;lon;timestamp;P1;durP1;ratioP1;P2;durP2;ratioP2
14276;SDS011;7222;57.346;12.150;2022-09-30T00:02:19;2.03;;;1.93;;
14276;SDS011;7222;57.346;12.150;2022-09-30T00:04:46;2.17;;;2.00;;
14276;SDS011;7222;57.346;12.150;2022-09-30T00:07:14;2.20;;;2.00;;
14276;SDS011;7222;57.346;12.150;2022-09-30T00:09:42;2.63;;;2.07;;
14276;SDS011;7222;57.346;12.150;2022-09-30T00:12:12;2.23;;;2.13;;
14276;SDS011;7222;57.346;12.150;2022-09-30T00:14:39;1.90;;;1.80;;
14276;SDS011;7222;57.346;12.150;2022-09-30T00:17:06;2.40;;;2.03;;
14276;SDS011;7222;57.346;12.150;2022-09-30T00:19:33;2.20;;;2.00;;
14276;SDS011;7222;57.346;12.150;2022-09-30T00:22:00;2.60;;;2.17;;
14276;SDS011;7222;57.346;12.150;2022-09-30T00:24:27;1.90;;;1.80;;
14276;SDS011;7222;57.346;12.150;2022-09-30T00:26:55;2.40;;;2.20;;
14276;SDS011;7222;57.346;12.150;2022-09-30T00:29:22;2.17;;;2.00;;
14276;SDS011;7222;57.346;12.150;2022-09-30T00:31:49;3.47;;;2.10;;
14276;SDS011;7222;57.346;12.150;2022-09-30T00:34:16;7.63;;;2.40;;
14276;SDS011;7222;57.346;12.150;2022-09-30T00:36:44;2.07;;;1.80;;
14276;SDS011;7222;57.346;12.150;2022-09-30T00:39:13;3.13;;;2.27;;
14276;SDS011;7222;57.346;12.150;2022-09-30T00:41:42;2.13;;;2.00;;
14276;SDS011;7222;57.346;12.150;2022-09-30T00:47:19;2.43;;;1.87;;
14276;SDS011;7222;57.346;12.150;2022-09-30T00:50:14;4.40;;;2.40;;
14276;SDS011;7222;57.346;12.150;2022-09-30T00:52:45;2.33;;;2.13;;
14276;SDS011;7222;57.346;12.150;2022-09-30T00:55:20;3.27;;;2.20;;
14276;SDS011;7222;57.346;12.150;2022-09-30T00:57:53;2.37;;;2.17;;
14276;SDS011;7222;57.346;12.150;2022-09-30T01:00:23;2.37;;;2.17;;
14276;SDS011;7222;57.346;12.150;2022-09-30T01:02:50;1.97;;;1.70;;
14276;SDS011;7222;57.346;12.150;2022-09-30T01:05:18;2.90;;;2.10;;
14276;SDS011;7222;57.346;12.150;2022-09-30T01:07:46;1.90;;;1.80;;
14276;SDS011;7222;57.346;12.150;2022-09-30T01:10:14;3.90;;;2.17;;
14276;SDS011;7222;57.346;12.150;2022-09-30T01:12:41;2.10;;;2.00;;
14276;SDS011;7222;57.346;12.150;2022-09-30T01:15:08;2.40;;;2.20;;
14276;SDS011;7222;57.346;12.150;2022-09-30T01:17:41;3.63;;;1.90;;
14276;SDS011;7222;57.346;12.150;2022-09-30T01:23:16;2.20;;;1.97;;
14276;SDS011;7222;57.346;12.150;2022-09-30T01:29:32;3.20;;;2.07;;
14276;SDS011;7222;57.346;12.150;2022-09-30T01:32:33;2.57;;;2.20;;
14276;SDS011;7222;57.346;12.150;2022-09-30T01:35:16;2.67;;;2.47;;
14276;SDS011;7222;57.346;12.150;2022-09-30T01:37:51;1.93;;;1.83;;
14276;SDS011;7222;57.346;12.150;2022-09-30T01:40:27;2.10;;;1.90;;
14276;SDS011;7222;57.346;12.150;2022-09-30T01:43:03;2.07;;;1.97;;
14276;SDS011;7222;57.346;12.150;2022-09-30T01:45:37;6.70;;;2.40;;
14276;SDS011;7222;57.346;12.150;2022-09-30T01:48:11;2.63;;;2.10;;
14276;SDS011;7222;57.346;12.150;2022-09-30T01:50:46;2.20;;;2.03;;
14276;SDS011;7222;57.346;12.150;2022-09-30T01:53:20;2.90;;;2.13;;
14276;SDS011;7222;57.346;12.150;2022-09-30T01:55:54;3.23;;;2.27;;
14276;SDS011;7222;57.346;12.150;2022-09-30T01:58:28;2.67;;;2.33;;
14276;SDS011;7222;57.346;12.150;2022-09-30T02:01:09;2.53;;;2.33;;
14276;SDS011;7222;57.346;12.150;2022-09-30T02:03:43;2.37;;;2.17;;
14276;SDS011;7222;57.346;12.150;2022-09-30T02:06:14;2.80;;;1.87;;
14276;SDS011;7222;57.346;12.150;2022-09-30T02:08:45;2.50;;;2.30;;
14276;SDS011;7222;57.346;12.150;2022-09-30T02:11:17;3.83;;;2.00;;
14276;SDS011;7222;57.346;12.150;2022-09-30T02:13:50;3.00;;;2.10;;
14276;SDS011;7222;57.346;12.150;2022-09-30T02:16:22;2.43;;;2.20;;
14276;SDS011;7222;57.346;12.150;2022-09-30T02:18:54;2.37;;;2.17;;
14276;SDS011;7222;57.346;12.150;2022-09-30T02:21:27;2.83;;;1.97;;
14276;SDS011;7222;57.346;12.150;2022-09-30T02:23:59;2.17;;;2.03;;
14276;SDS011;7222;57.346;12.150;2022-09-30T02:26:32;2.60;;;2.40;;
14276;SDS011;7222;57.346;12.150;2022-09-30T02:29:04;2.43;;;2.20;;
14276;SDS011;7222;57.346;12.150;2022-09-30T02:31:35;2.23;;;2.03;;
14276;SDS011;7222;57.346;12.150;2022-09-30T02:34:06;2.00;;;1.90;;
14276;SDS011;7222;57.346;12.150;2022-09-30T02:36:39;2.60;;;2.40;;
14276;SDS011;7222;57.346;12.150;2022-09-30T02:39:13;2.13;;;1.93;;
14276;SDS011;7222;57.346;12.150;2022-09-30T02:41:47;2.40;;;2.20;;
14276;SDS011;7222;57.346;12.150;2022-09-30T02:44:18;3.40;;;2.30;;
14276;SDS011;7222;57.346;12.150;2022-09-30T02:46:49;2.63;;;2.20;;
14276;SDS011;7222;57.346;12.150;2022-09-30T02:49:24;2.20;;;2.00;;
14276;SDS011;7222;57.346;12.150;2022-09-30T02:52:02;3.13;;;2.40;;
14276;SDS011;7222;57.346;12.150;2022-09-30T02:54:41;1.90;;;1.80;;
14276;SDS011;7222;57.346;12.150;2022-09-30T02:57:17;2.23;;;2.07;;
14276;SDS011;7222;57.346;12.150;2022-09-30T02:59:48;2.77;;;2.23;;
14276;SDS011;7222;57.346;12.150;2022-09-30T03:02:16;2.50;;;2.30;;
14276;SDS011;7222;57.346;12.150;2022-09-30T03:04:46;3.90;;;2.60;;
14276;SDS011;7222;57.346;12.150;2022-09-30T03:07:14;3.23;;;2.30;;
14276;SDS011;7222;57.346;12.150;2022-09-30T03:09:42;4.07;;;2.40;;
14276;SDS011;7222;57.346;12.150;2022-09-30T03:12:10;2.33;;;2.13;;
14276;SDS011;7222;57.346;12.150;2022-09-30T03:14:51;3.00;;;2.30;;
14276;SDS011;7222;57.346;12.150;2022-09-30T03:17:51;2.03;;;1.83;;
14276;SDS011;7222;57.346;12.150;2022-09-30T03:20:29;2.90;;;2.30;;
14276;SDS011;7222;57.346;12.150;2022-09-30T03:23:15;3.87;;;2.60;;
14276;SDS011;7222;57.346;12.150;2022-09-30T03:26:01;2.30;;;2.10;;
14276;SDS011;7222;57.346;12.150;2022-09-30T03:28:42;2.73;;;2.47;;
14276;SDS011;7222;57.346;12.150;2022-09-30T03:31:17;2.77;;;2.43;;
14276;SDS011;7222;57.346;12.150;2022-09-30T03:33:50;2.40;;;2.20;;
14276;SDS011;7222;57.346;12.150;2022-09-30T03:36:23;3.10;;;2.50;;
14276;SDS011;7222;57.346;12.150;2022-09-30T03:38:57;2.77;;;2.10;;
14276;SDS011;7222;57.346;12.150;2022-09-30T03:41:30;3.07;;;2.27;;
14276;SDS011;7222;57.346;12.150;2022-09-30T03:44:03;3.43;;;2.37;;
14276;SDS011;7222;57.346;12.150;2022-09-30T03:46:35;2.90;;;2.20;;
14276;SDS011;7222;57.346;12.150;2022-09-30T03:49:07;2.87;;;2.67;;
14276;SDS011;7222;57.346;12.150;2022-09-30T03:51:39;4.47;;;2.40;;
14276;SDS011;7222;57.346;12.150;2022-09-30T03:54:07;2.33;;;2.10;;
14276;SDS011;7222;57.346;12.150;2022-09-30T03:56:35;2.50;;;2.30;;
14276;SDS011;7222;57.346;12.150;2022-09-30T03:59:08;4.30;;;2.60;;
14276;SDS011;7222;57.346;12.150;2022-09-30T04:01:37;2.30;;;2.10;;
14276;SDS011;7222;57.346;12.150;2022-09-30T04:04:05;2.83;;;2.10;;
14276;SDS011;7222;57.346;12.150;2022-09-30T04:06:32;2.33;;;2.13;;
14276;SDS011;7222;57.346;12.150;2022-09-30T04:09:00;3.27;;;2.20;;
14276;SDS011;7222;57.346;12.150;2022-09-30T04:11:27;2.50;;;2.30;;
14276;SDS011;7222;57.346;12.150;2022-09-30T04:13:54;2.30;;;2.10;;
14276;SDS011;7222;57.346;12.150;2022-09-30T04:16:21;2.70;;;2.50;;
14276;SDS011;7222;57.346;12.150;2022-09-30T04:18:49;2.80;;;2.20;;
14276;SDS011;7222;57.346;12.150;2022-09-30T04:21:16;2.00;;;1.90;;
14276;SDS011;7222;57.346;12.150;2022-09-30T04:23:43;3.67;;;2.33;;
14276;SDS011;7222;57.346;12.150;2022-09-30T04:26:12;2.33;;;2.20;;
14276;SDS011;7222;57.346;12.150;2022-09-30T04:28:40;2.20;;;2.10;;
14276;SDS011;7222;57.346;12.150;2022-09-30T04:31:09;3.07;;;2.30;;
14276;SDS011;7222;57.346;12.150;2022-09-30T04:33:37;3.50;;;2.10;;
14276;SDS011;7222;57.346;12.150;2022-09-30T04:36:04;2.30;;;2.10;;
14276;SDS011;7222;57.346;12.150;2022-09-30T04:38:32;2.37;;;2.03;;
14276;SDS011;7222;57.346;12.150;2022-09-30T04:41:00;2.83;;;2.20;;
14276;SDS011;7222;57.346;12.150;2022-09-30T04:43:31;2.63;;;2.43;;
14276;SDS011;7222;57.346;12.150;2022-09-30T04:45:59;3.03;;;2.40;;
14276;SDS011;7222;57.346;12.150;2022-09-30T04:48:26;3.33;;;2.10;;
14276;SDS011;7222;57.346;12.150;2022-09-30T04:50:56;2.30;;;2.20;;
14276;SDS011;7222;57.346;12.150;2022-09-30T04:53:24;2.60;;;2.40;;
14276;SDS011;7222;57.346;12.150;2022-09-30T04:55:56;3.30;;;2.60;;
14276;SDS011;7222;57.346;12.150;2022-09-30T04:58:24;3.00;;;2.70;;
14276;SDS011;7222;57.346;12.150;2022-09-30T05:00:58;2.63;;;2.43;;
14276;SDS011;7222;57.346;12.150;2022-09-30T05:03:26;2.40;;;2.20;;
14276;SDS011;7222;57.346;12.150;2022-09-30T05:05:53;3.33;;;2.30;;
14276;SDS011;7222;57.346;12.150;2022-09-30T05:08:20;2.40;;;2.20;;
14276;SDS011;7222;57.346;12.150;2022-09-30T05:10:52;2.60;;;2.40;;
14276;SDS011;7222;57.346;12.150;2022-09-30T05:13:21;2.60;;;2.40;;
14276;SDS011;7222;57.346;12.150;2022-09-30T05:15:49;2.60;;;2.40;;
14276;SDS011;7222;57.346;12.150;2022-09-30T05:18:17;5.23;;;2.30;;
14276;SDS011;7222;57.346;12.150;2022-09-30T05:20:47;2.60;;;2.40;;
14276;SDS011;7222;57.346;12.150;2022-09-30T05:23:15;3.40;;;2.57;;
14276;SDS011;7222;57.346;12.150;2022-09-30T05:25:42;2.80;;;2.60;;
14276;SDS011;7222;57.346;12.150;2022-09-30T05:28:09;2.70;;;2.50;;
14276;SDS011;7222;57.346;12.150;2022-09-30T05:30:36;4.30;;;2.90;;
14276;SDS011;7222;57.346;12.150;2022-09-30T05:33:04;3.57;;;2.73;;
14276;SDS011;7222;57.346;12.150;2022-09-30T05:35:33;3.00;;;2.40;;
14276;SDS011;7222;57.346;12.150;2022-09-30T05:38:00;2.10;;;2.00;;
14276;SDS011;7222;57.346;12.150;2022-09-30T05:40:28;2.50;;;2.30;;
14276;SDS011;7222;57.346;12.150;2022-09-30T05:42:55;2.67;;;2.47;;
14276;SDS011;7222;57.346;12.150;2022-09-30T05:45:23;2.97;;;2.40;;
14276;SDS011;7222;57.346;12.150;2022-09-30T05:47:50;2.47;;;2.27;;
14276;SDS011;7222;57.346;12.150;2022-09-30T05:50:18;2.40;;;2.20;;
14276;SDS011;7222;57.346;12.150;2022-09-30T05:52:47;2.77;;;2.00;;
14276;SDS011;7222;57.346;12.150;2022-09-30T05:55:14;4.17;;;2.67;;
14276;SDS011;7222;57.346;12.150;2022-09-30T05:57:42;2.93;;;2.60;;
14276;SDS011;7222;57.346;12.150;2022-09-30T06:00:12;3.53;;;2.70;;
14276;SDS011;7222;57.346;12.150;2022-09-30T06:02:39;2.37;;;2.17;;
14276;SDS011;7222;57.346;12.150;2022-09-30T06:05:07;2.73;;;2.50;;
14276;SDS011;7222;57.346;12.150;2022-09-30T06:07:35;2.80;;;2.20;;
14276;SDS011;7222;57.346;12.150;2022-09-30T06:10:04;4.40;;;2.83;;
14276;SDS011;7222;57.346;12.150;2022-09-30T06:12:33;3.03;;;2.63;;
14276;SDS011;7222;57.346;12.150;2022-09-30T06:15:01;3.37;;;2.40;;
14276;SDS011;7222;57.346;12.150;2022-09-30T06:17:28;2.40;;;2.20;;
14276;SDS011;7222;57.346;12.150;2022-09-30T06:19:55;3.53;;;2.80;;
14276;SDS011;7222;57.346;12.150;2022-09-30T06:22:22;2.90;;;2.53;;
14276;SDS011;7222;57.346;12.150;2022-09-30T06:24:49;3.47;;;3.17;;
14276;SDS011;7222;57.346;12.150;2022-09-30T06:27:18;3.20;;;2.90;;
14276;SDS011;7222;57.346;12.150;2022-09-30T06:29:46;3.77;;;3.00;;
14276;SDS011;7222;57.346;12.150;2022-09-30T06:32:13;2.97;;;2.77;;
14276;SDS011;7222;57.346;12.150;2022-09-30T06:34:41;3.37;;;2.80;;
14276;SDS011;7222;57.346;12.150;2022-09-30T06:37:08;3.00;;;2.70;;
14276;SDS011;7222;57.346;12.150;2022-09-30T06:39:37;2.73;;;2.53;;
14276;SDS011;7222;57.346;12.150;2022-09-30T06:42:06;3.17;;;2.97;;
14276;SDS011;7222;57.346;12.150;2022-09-30T06:44:34;2.67;;;2.40;;
14276;SDS011;7222;57.346;12.150;2022-09-30T06:47:01;2.60;;;2.40;;
14276;SDS011;7222;57.346;12.150;2022-09-30T06:49:28;4.00;;;3.10;;
14276;SDS011;7222;57.346;12.150;2022-09-30T06:51:55;3.27;;;3.07;;
14276;SDS011;7222;57.346;12.150;2022-09-30T06:54:23;3.43;;;3.20;;
14276;SDS011;7222;57.346;12.150;2022-09-30T06:56:51;3.17;;;2.97;;
14276;SDS011;7222;57.346;12.150;2022-09-30T06:59:19;3.43;;;3.13;;
14276;SDS011;7222;57.346;12.150;2022-09-30T07:01:48;3.73;;;3.30;;
14276;SDS011;7222;57.346;12.150;2022-09-30T07:04:15;3.60;;;3.20;;
14276;SDS011;7222;57.346;12.150;2022-09-30T07:06:42;2.90;;;2.70;;
14276;SDS011;7222;57.346;12.150;2022-09-30T07:09:10;3.50;;;2.93;;
14276;SDS011;7222;57.346;12.150;2022-09-30T07:11:37;4.07;;;3.00;;
14276;SDS011;7222;57.346;12.150;2022-09-30T07:14:05;3.73;;;3.43;;
14276;SDS011;7222;57.346;12.150;2022-09-30T07:16:32;3.80;;;3.13;;
14276;SDS011;7222;57.346;12.150;2022-09-30T07:19:01;4.17;;;2.83;;
14276;SDS011;7222;57.346;12.150;2022-09-30T07:21:29;3.43;;;2.87;;
14276;SDS011;7222;57.346;12.150;2022-09-30T07:23:56;3.27;;;2.60;;
14276;SDS011;7222;57.346;12.150;2022-09-30T07:26:24;3.07;;;2.77;;
14276;SDS011;7222;57.346;12.150;2022-09-30T07:28:52;3.30;;;3.00;;
14276;SDS011;7222;57.346;12.150;2022-09-30T07:31:20;2.50;;;2.30;;
14276;SDS011;7222;57.346;12.150;2022-09-30T07:33:49;2.50;;;2.20;;
14276;SDS011;7222;57.346;12.150;2022-09-30T07:36:19;4.73;;;2.93;;
14276;SDS011;7222;57.346;12.150;2022-09-30T07:38:51;3.30;;;2.53;;
14276;SDS011;7222;57.346;12.150;2022-09-30T07:41:19;2.80;;;2.60;;
14276;SDS011;7222;57.346;12.150;2022-09-30T07:43:51;3.83;;;2.90;;
14276;SDS011;7222;57.346;12.150;2022-09-30T07:46:22;2.97;;;2.67;;
14276;SDS011;7222;57.346;12.150;2022-09-30T07:48:50;3.13;;;2.50;;
14276;SDS011;7222;57.346;12.150;2022-09-30T07:51:23;2.73;;;2.40;;
14276;SDS011;7222;57.346;12.150;2022-09-30T07:53:52;2.50;;;2.30;;
14276;SDS011;7222;57.346;12.150;2022-09-30T07:56:21;2.73;;;2.20;;
14276;SDS011;7222;57.346;12.150;2022-09-30T07:58:49;2.60;;;2.40;;
14276;SDS011;7222;57.346;12.150;2022-09-30T08:01:19;2.40;;;2.00;;
14276;SDS011;7222;57.346;12.150;2022-09-30T08:03:47;3.10;;;2.33;;
14276;SDS011;7222;57.346;12.150;2022-09-30T08:06:17;2.20;;;2.00;;
14276;SDS011;7222;57.346;12.150;2022-09-30T08:08:46;2.13;;;2.03;;
14276;SDS011;7222;57.346;12.150;2022-09-30T08:11:15;2.37;;;2.20;;
14276;SDS011;7222;57.346;12.150;2022-09-30T08:13:43;2.20;;;2.00;;
14276;SDS011;7222;57.346;12.150;2022-09-30T08:16:10;2.00;;;1.90;;
14276;SDS011;7222;57.346;12.150;2022-09-30T08:18:36;2.30;;;1.90;;
14276;SDS011;7222;57.346;12.150;2022-09-30T08:21:04;2.40;;;2.20;;
14276;SDS011;7222;57.346;12.150;2022-09-30T08:23:31;3.00;;;1.87;;
14276;SDS011;7222;57.346;12.150;2022-09-30T08:26:04;2.00;;;1.90;;
14276;SDS011;7222;57.346;12.150;2022-09-30T08:28:32;2.57;;;2.23;;
14276;SDS011;7222;57.346;12.150;2022-09-30T08:31:03;1.97;;;1.70;;
14276;SDS011;7222;57.346;12.150;2022-09-30T08:33:32;2.20;;;1.90;;
14276;SDS011;7222;57.346;12.150;2022-09-30T08:36:03;3.80;;;1.77;;
14276;SDS011;7222;57.346;12.150;2022-09-30T08:38:31;1.67;;;1.57;;
14276;SDS011;7222;57.346;12.150;2022-09-30T08:41:01;2.20;;;1.80;;
14276;SDS011;7222;57.346;12.150;2022-09-30T08:43:49;1.70;;;1.60;;
14276;SDS011;7222;57.346;12.150;2022-09-30T08:46:29;1.87;;;1.57;;
14276;SDS011;7222;57.346;12.150;2022-09-30T08:49:18;1.67;;;1.57;;
14276;SDS011;7222;57.346;12.150;2022-09-30T08:51:57;1.90;;;1.80;;
14276;SDS011;7222;57.346;12.150;2022-09-30T08:54:28;1.87;;;1.57;;
14276;SDS011;7222;57.346;12.150;2022-09-30T08:57:00;1.97;;;1.33;;
14276;SDS011;7222;57.346;12.150;2022-09-30T08:59:31;2.27;;;1.50;;
14276;SDS011;7222;57.346;12.150;2022-09-30T09:02:03;1.50;;;1.40;;
14276;SDS011;7222;57.346;12.150;2022-09-30T09:04:40;1.87;;;1.50;;
14276;SDS011;7222;57.346;12.150;2022-09-30T09:07:09;1.30;;;1.27;;
14276;SDS011;7222;57.346;12.150;2022-09-30T09:09:50;1.50;;;1.40;;
14276;SDS011;7222;57.346;12.150;2022-09-30T09:12:32;1.43;;;1.33;;
14276;SDS011;7222;57.346;12.150;2022-09-30T09:15:16;1.40;;;1.30;;
14276;SDS011;7222;57.346;12.150;2022-09-30T09:17:53;2.07;;;1.43;;
14276;SDS011;7222;57.346;12.150;2022-09-30T09:20:35;1.60;;;1.50;;
14276;SDS011;7222;57.346;12.150;2022-09-30T09:23:08;2.87;;;1.40;;
14276;SDS011;7222;57.346;12.150;2022-09-30T09:25:36;1.47;;;1.20;;
14276;SDS011;7222;57.346;12.150;2022-09-30T09:28:08;1.73;;;1.63;;
14276;SDS011;7222;57.346;12.150;2022-09-30T09:30:44;1.93;;;1.70;;
14276;SDS011;7222;57.346;12.150;2022-09-30T09:33:17;1.93;;;1.30;;
14276;SDS011;7222;57.346;12.150;2022-09-30T09:35:48;1.70;;;1.60;;
14276;SDS011;7222;57.346;12.150;2022-09-30T09:38:23;1.77;;;1.67;;
14276;SDS011;7222;57.346;12.150;2022-09-30T09:41:08;1.67;;;1.57;;
14276;SDS011;7222;57.346;12.150;2022-09-30T09:43:52;3.27;;;1.67;;
14276;SDS011;7222;57.346;12.150;2022-09-30T09:46:34;2.87;;;1.67;;
14276;SDS011;7222;57.346;12.150;2022-09-30T09:52:08;1.90;;;1.80;;
14276;SDS011;7222;57.346;12.150;2022-09-30T09:54:54;3.07;;;1.50;;
14276;SDS011;7222;57.346;12.150;2022-09-30T09:57:22;1.93;;;1.70;;
14276;SDS011;7222;57.346;12.150;2022-09-30T09:59:58;2.10;;;1.90;;
14276;SDS011;7222;57.346;12.150;2022-09-30T10:02:43;2.80;;;2.60;;
14276;SDS011;7222;57.346;12.150;2022-09-30T10:05:21;2.57;;;2.37;;
14276;SDS011;7222;57.346;12.150;2022-09-30T10:07:51;2.30;;;2.10;;
14276;SDS011;7222;57.346;12.150;2022-09-30T10:10:40;2.50;;;2.30;;
14276;SDS011;7222;57.346;12.150;2022-09-30T10:13:17;2.53;;;2.30;;
14276;SDS011;7222;57.346;12.150;2022-09-30T10:16:01;3.50;;;3.20;;
14276;SDS011;7222;57.346;12.150;2022-09-30T10:18:30;4.57;;;3.53;;
14276;SDS011;7222;57.346;12.150;2022-09-30T10:21:18;3.87;;;3.47;;
14276;SDS011;7222;57.346;12.150;2022-09-30T10:23:49;3.70;;;3.40;;
14276;SDS011;7222;57.346;12.150;2022-09-30T10:26:18;3.60;;;3.30;;
14276;SDS011;7222;57.346;12.150;2022-09-30T10:28:48;3.23;;;3.03;;
14276;SDS011;7222;57.346;12.150;2022-09-30T10:37:56;3.00;;;2.80;;
14276;SDS011;7222;57.346;12.150;2022-09-30T10:40:26;2.53;;;2.33;;
14276;SDS011;7222;57.346;12.150;2022-09-30T10:42:55;3.90;;;3.40;;
14276;SDS011;7222;57.346;12.150;2022-09-30T10:48:07;3.30;;;2.47;;
14276;SDS011;7222;57.346;12.150;2022-09-30T10:51:16;3.80;;;2.90;;
14276;SDS011;7222;57.346;12.150;2022-09-30T10:53:51;3.40;;;3.03;;
14276;SDS011;7222;57.346;12.150;2022-09-30T10:59:42;3.30;;;2.77;;
14276;SDS011;7222;57.346;12.150;2022-09-30T11:02:21;2.80;;;2.60;;
14276;SDS011;7222;57.346;12.150;2022-09-30T11:04:54;4.00;;;3.70;;
14276;SDS011;7222;57.346;12.150;2022-09-30T11:07:29;3.10;;;2.90;;
14276;SDS011;7222;57.346;12.150;2022-09-30T11:10:01;2.93;;;2.73;;
14276;SDS011;7222;57.346;12.150;2022-09-30T11:12:36;4.07;;;2.43;;
14276;SDS011;7222;57.346;12.150;2022-09-30T11:15:11;3.13;;;2.77;;
14276;SDS011;7222;57.346;12.150;2022-09-30T11:17:48;3.90;;;2.40;;
14276;SDS011;7222;57.346;12.150;2022-09-30T11:20:20;3.17;;;2.63;;
14276;SDS011;7222;57.346;12.150;2022-09-30T11:22:51;3.37;;;2.80;;
14276;SDS011;7222;57.346;12.150;2022-09-30T11:25:25;3.57;;;3.03;;
14276;SDS011;7222;57.346;12.150;2022-09-30T11:28:02;2.73;;;2.53;;
14276;SDS011;7222;57.346;12.150;2022-09-30T11:31:07;3.60;;;3.03;;
14276;SDS011;7222;57.346;12.150;2022-09-30T11:34:08;3.60;;;3.27;;
14276;SDS011;7222;57.346;12.150;2022-09-30T11:36:47;4.00;;;3.67;;
14276;SDS011;7222;57.346;12.150;2022-09-30T11:39:25;5.07;;;4.60;;
14276;SDS011;7222;57.346;12.150;2022-09-30T11:42:19;5.80;;;4.80;;
14276;SDS011;7222;57.346;12.150;2022-09-30T11:45:06;4.40;;;4.07;;
14276;SDS011;7222;57.346;12.150;2022-09-30T11:47:47;4.50;;;3.97;;
14276;SDS011;7222;57.346;12.150;2022-09-30T11:50:48;2.87;;;2.67;;
14276;SDS011;7222;57.346;12.150;2022-09-30T11:53:25;4.13;;;3.80;;
14276;SDS011;7222;57.346;12.150;2022-09-30T11:59:13;4.60;;;3.80;;
14276;SDS011;7222;57.346;12.150;2022-09-30T12:01:53;3.60;;;3.30;;
14276;SDS011;7222;57.346;12.150;2022-09-30T12:04:26;4.10;;;3.70;;
14276;SDS011;7222;57.346;12.150;2022-09-30T12:06:57;3.23;;;2.73;;
14276;SDS011;7222;57.346;12.150;2022-09-30T12:09:27;3.70;;;3.37;;
14276;SDS011;7222;57.346;12.150;2022-09-30T12:12:02;4.37;;;3.60;;
14276;SDS011;7222;57.346;12.150;2022-09-30T12:14:58;2.90;;;2.60;;
14276;SDS011;7222;57.346;12.150;2022-09-30T12:17:28;3.00;;;2.63;;
14276;SDS011;7222;57.346;12.150;2022-09-30T12:20:04;2.87;;;2.60;;
14276;SDS011;7222;57.346;12.150;2022-09-30T12:23:16;3.33;;;2.60;;
14276;SDS011;7222;57.346;12.150;2022-09-30T12:25:48;2.80;;;2.60;;
14276;SDS011;7222;57.346;12.150;2022-09-30T12:28:21;2.37;;;2.27;;
14276;SDS011;7222;57.346;12.150;2022-09-30T12:31:25;2.60;;;2.40;;
14276;SDS011;7222;57.346;12.150;2022-09-30T12:34:27;2.90;;;2.60;;
14276;SDS011;7222;57.346;12.150;2022-09-30T12:40:10;1.80;;;1.43;;
14276;SDS011;7222;57.346;12.150;2022-09-30T12:46:13;2.13;;;1.93;;
14276;SDS011;7222;57.346;12.150;2022-09-30T12:48:56;2.17;;;2.00;;
14276;SDS011;7222;57.346;12.150;2022-09-30T12:51:28;2.50;;;1.93;;
14276;SDS011;7222;57.346;12.150;2022-09-30T12:53:58;2.47;;;2.27;;
14276;SDS011;7222;57.346;12.150;2022-09-30T12:56:28;2.67;;;2.27;;
14276;SDS011;7222;57.346;12.150;2022-09-30T12:58:57;2.50;;;2.30;;
14276;SDS011;7222;57.346;12.150;2022-09-30T13:01:26;2.60;;;2.40;;
14276;SDS011;7222;57.346;12.150;2022-09-30T13:12:25;1.83;;;1.67;;
14276;SDS011;7222;57.346;12.150;2022-09-30T13:21:18;2.07;;;1.80;;
14276;SDS011;7222;57.346;12.150;2022-09-30T13:23:51;1.97;;;1.77;;
14276;SDS011;7222;57.346;12.150;2022-09-30T13:26:35;2.00;;;1.80;;
14276;SDS011;7222;57.346;12.150;2022-09-30T13:32:03;1.97;;;1.60;;
14276;SDS011;7222;57.346;12.150;2022-09-30T13:34:32;1.97;;;1.53;;
14276;SDS011;7222;57.346;12.150;2022-09-30T13:37:28;2.17;;;1.70;;
14276;SDS011;7222;57.346;12.150;2022-09-30T13:40:02;1.40;;;1.30;;
14276;SDS011;7222;57.346;12.150;2022-09-30T13:42:34;3.00;;;1.50;;
14276;SDS011;7222;57.346;12.150;2022-09-30T13:45:10;2.50;;;1.73;;
14276;SDS011;7222;57.346;12.150;2022-09-30T13:47:44;3.37;;;2.00;;
14276;SDS011;7222;57.346;12.150;2022-09-30T13:50:17;1.70;;;1.60;;
14276;SDS011;7222;57.346;12.150;2022-09-30T13:52:49;1.90;;;1.80;;
14276;SDS011;7222;57.346;12.150;2022-09-30T13:55:21;2.43;;;2.23;;
14276;SDS011;7222;57.346;12.150;2022-09-30T13:57:56;1.63;;;1.53;;
14276;SDS011;7222;57.346;12.150;2022-09-30T14:00:38;1.80;;;1.70;;
14276;SDS011;7222;57.346;12.150;2022-09-30T14:03:17;2.20;;;2.10;;
14276;SDS011;7222;57.346;12.150;2022-09-30T14:06:13;2.60;;;1.70;;
14276;SDS011;7222;57.346;12.150;2022-09-30T14:12:01;2.47;;;2.00;;
14276;SDS011;7222;57.346;12.150;2022-09-30T14:14:45;2.77;;;2.10;;
14276;SDS011;7222;57.346;12.150;2022-09-30T14:17:51;1.80;;;1.70;;
14276;SDS011;7222;57.346;12.150;2022-09-30T14:20:45;2.00;;;1.90;;
14276;SDS011;7222;57.346;12.150;2022-09-30T14:23:44;2.07;;;1.93;;
14276;SDS011;7222;57.346;12.150;2022-09-30T14:26:32;2.43;;;2.20;;
14276;SDS011;7222;57.346;12.150;2022-09-30T14:29:13;2.20;;;2.00;;
14276;SDS011;7222;57.346;12.150;2022-09-30T14:31:46;3.30;;;2.00;;
14276;SDS011;7222;57.346;12.150;2022-09-30T14:34:14;2.43;;;1.80;;
14276;SDS011;7222;57.346;12.150;2022-09-30T14:36:43;2.37;;;1.77;;
14276;SDS011;7222;57.346;12.150;2022-09-30T14:39:25;1.90;;;1.70;;
14276;SDS011;7222;57.346;12.150;2022-09-30T14:41:55;2.23;;;1.73;;
14276;SDS011;7222;57.346;12.150;2022-09-30T14:44:28;2.03;;;1.83;;
14276;SDS011;7222;57.346;12.150;2022-09-30T14:47:00;2.87;;;2.17;;
14276;SDS011;7222;57.346;12.150;2022-09-30T14:49:30;3.87;;;2.00;;
14276;SDS011;7222;57.346;12.150;2022-09-30T14:52:00;2.90;;;2.03;;
14276;SDS011;7222;57.346;12.150;2022-09-30T14:54:29;2.10;;;2.00;;
14276;SDS011;7222;57.346;12.150;2022-09-30T14:56:57;2.13;;;1.93;;
14276;SDS011;7222;57.346;12.150;2022-09-30T14:59:28;2.50;;;2.10;;
14276;SDS011;7222;57.346;12.150;2022-09-30T15:01:57;2.30;;;1.77;;
14276;SDS011;7222;57.346;12.150;2022-09-30T15:04:26;3.10;;;2.40;;
14276;SDS011;7222;57.346;12.150;2022-09-30T15:06:55;2.50;;;1.97;;
14276;SDS011;7222;57.346;12.150;2022-09-30T15:09:26;3.53;;;2.13;;
14276;SDS011;7222;57.346;12.150;2022-09-30T15:11:58;2.53;;;2.33;;
14276;SDS011;7222;57.346;12.150;2022-09-30T15:14:32;2.80;;;2.60;;
14276;SDS011;7222;57.346;12.150;2022-09-30T15:17:15;4.23;;;2.87;;
14276;SDS011;7222;57.346;12.150;2022-09-30T15:19:44;2.80;;;2.60;;
14276;SDS011;7222;57.346;12.150;2022-09-30T15:22:14;4.47;;;2.50;;
14276;SDS011;7222;57.346;12.150;2022-09-30T15:24:42;3.60;;;2.77;;
14276;SDS011;7222;57.346;12.150;2022-09-30T15:27:11;3.00;;;2.40;;
14276;SDS011;7222;57.346;12.150;2022-09-30T15:29:53;3.40;;;2.70;;
14276;SDS011;7222;57.346;12.150;2022-09-30T15:32:21;2.83;;;2.57;;
14276;SDS011;7222;57.346;12.150;2022-09-30T15:34:49;3.70;;;2.40;;
14276;SDS011;7222;57.346;12.150;2022-09-30T15:37:18;3.27;;;3.00;;
14276;SDS011;7222;57.346;12.150;2022-09-30T15:39:48;3.90;;;2.80;;
14276;SDS011;7222;57.346;12.150;2022-09-30T15:42:39;3.67;;;3.10;;
14276;SDS011;7222;57.346;12.150;2022-09-30T15:45:28;2.73;;;2.50;;
14276;SDS011;7222;57.346;12.150;2022-09-30T15:47:58;3.33;;;2.80;;
14276;SDS011;7222;57.346;12.150;2022-09-30T15:53:14;4.20;;;2.93;;
14276;SDS011;7222;57.346;12.150;2022-09-30T15:55:43;4.30;;;3.20;;
14276;SDS011;7222;57.346;12.150;2022-09-30T16:01:09;3.13;;;2.87;;
14276;SDS011;7222;57.346;12.150;2022-09-30T16:03:45;3.87;;;3.10;;
14276;SDS011;7222;57.346;12.150;2022-09-30T16:06:19;3.20;;;2.90;;
14276;SDS011;7222;57.346;12.150;2022-09-30T16:08:53;2.77;;;2.57;;
14276;SDS011;7222;57.346;12.150;2022-09-30T16:11:27;3.50;;;3.17;;
14276;SDS011;7222;57.346;12.150;2022-09-30T16:13:59;3.47;;;2.63;;
14276;SDS011;7222;57.346;12.150;2022-09-30T16:16:30;3.43;;;2.63;;
14276;SDS011;7222;57.346;12.150;2022-09-30T16:18:59;4.20;;;2.87;;
14276;SDS011;7222;57.346;12.150;2022-09-30T16:27:21;4.50;;;2.97;;
14276;SDS011;7222;57.346;12.150;2022-09-30T16:29:53;5.43;;;3.43;;
14276;SDS011;7222;57.346;12.150;2022-09-30T16:32:21;4.00;;;2.97;;